Darwin International Airport
YPDN : now visible

Aeroporto :











RITROVATECI SU...

 
LOGIN :

Iscrizione | Disclaimer

   EN    FR    IT 

 









Sommario :    VFR   VFR Marginale   IFR   IFR Intensivo   IFR Molto Intensivo
Visibilità : 
Base nubi : 
>= 8 km
>= 3000ft
5 / 8 km
1000 / 3000 ft
1500m / 5 km
500 / 1000 ft
800 / 1500m
200 / 500 ft
< 800m
< 200 ft
Simboli :   Temporali  Nebbia  Neve Forte  Precipitazioni Forti  Vento > 20 kt






- Altitudine del aeroporto : 103 ft
- Codice IATA : DRW


YPDN - Darwin International

ULTIMO METAR :
  • 081130Z 36003KT 9999 FEW019 BKN250 29/25 Q1011 NOSIG RMK USE TAF FOR ARRIVALS AFTER 1230Z

METARs OBSOLETI :
  • 081100Z 01002KT 9999 FEW020 BKN250 29/24 Q1011
  • 081030Z 01003KT 9999 FEW021 SCT170 BKN250 29/24 Q1010 NOSIG RMK USE TAF FOR ARRIVALS AFTER 1230Z
  • 081000Z 02004KT 9999 FEW022 BKN240 29/24 Q1010
  • 080930Z 03006KT 9999 FEW024 BKN250 29/24 Q1009 NOSIG
  • 080900Z 02005KT 9999 FEW028 BKN250 BKN300 30/24 Q1009
  • 080830Z 01007KT 9999 FEW030 SCT230 BKN300 30/23 Q1009 NOSIG

TAF TAF YPDN
Valido dal 08 a 06 ore il 09 a 12 ore UTC


080521Z 0806/0912 31010KT 9999 SCT040
FM080700 02008KT 9999 SCT040
FM081400 10008KT 9999 SCT020
PROB30
TEMPO 0814/0822 VRB20G35KT 1000 TSRA BKN010 SCT020CB
PROB30
TEMPO 0903/0908 VRB20G35KT 1000 TSRA BKN010 SCT020CB



MetMap, La meteo Aeronautica in un colpo d'occhio ! - Copyright ORBIFLY Dicembre 2007 - Disclaimer

ORBIFLY MET'MAP TEAM :

Programmazione e sviluppo : Alexandra Zaïnal
Concezione : Baudouin d'Aumeries
Aiuto per la programmazione : Marc-Olivier Méhu
Supporto tecnico e logistico : Manuel Goepfert
Aiuto per la traduzione : Arnaldo La Scala

Contatto : metmap@orbifly.com




FONTI E CREDITI :

   NOAA       Earth
Advisory